Uvalde, TX

11:25 AM CST on February 23, 2018 (GMT -0600)
Garner

Weather History for KUVA - August, 2014

Change the Weather History Date:

Monday, August 18, 2014

  Actual Average (KHDO) Record (KHDO)
Temperature  
Mean Temperature 88 °F -  
Max Temperature 100 °F 93 °F 102 °F (1997)
Min Temperature 75 °F 70 °F 68 °F (2003)
Cooling Degree Days 22    
Growing Degree Days 38 (Base 50)    
Moisture  
Dew Point 70 °F    
Average Humidity 59    
Maximum Humidity 90    
Minimum Humidity 26    
Precipitation  
Precipitation 0.00 in - - ()
Sea Level Pressure  
Sea Level Pressure 29.90 in    
Wind  
Wind Speed 11 mph (SE)    
Max Wind Speed 26 mph    
Max Gust Speed 32 mph    
Visibility 10 miles    
Events Rain , Thunderstorm    
Averages and records for this station are not official NWS values.
T = Trace of Precipitation, MM = Missing Value Source: NWS Daily Summary

Daily Weather History Graph

Daily Weather History Graph

Search for Another Location

Airport or City:

Trip Planner

Search our weather history database for the weather conditions in past years. The results will help you decide how hot, cold, wet, or windy it might be!

Date:

Astronomy

Aug. 18, 2014 Rise Set
Actual Time 7:09 AM CDT 8:15 PM CDT
Civil Twilight 6:44 AM CDT 8:40 PM CDT
Nautical Twilight 6:14 AM CDT 9:09 PM CDT
Astronomical Twilight 5:44 AM CDT 9:40 PM CDT
Moon 1:23 AM CDT (8/18) 3:13 PM CDT (8/18)
Length of Visible Light 13h 56m
Length of Day
13h 06m
Last Quarter, 38% of the Moon is Illuminated
Aug 18
Last Quarter
Aug 25
New
Sep 2
First Quarter
Sep 8
Full
Sep 15
Last Quarter

Hourly Weather History & Observations

Time (CDT) Temp. Heat Index Dew Point Humidity Pressure Visibility Wind Dir Wind Speed Gust Speed Precip Events Conditions
12:15 AM 88.0 °F 96.5 °F 74.1 °F 63% 29.93 in 10.0 mi SE 11.5 mph 17.3 mph N/A   Clear
12:35 AM 88.0 °F 98.0 °F 75.2 °F 66% 29.93 in 10.0 mi SE 11.5 mph - N/A   Clear
12:55 AM 88.0 °F 98.5 °F 75.9 °F 67% 29.93 in 10.0 mi SE 15.0 mph 20.7 mph N/A   Clear
1:15 AM 85.5 °F 93.0 °F 73.8 °F 68% 29.93 in 10.0 mi SE 15.0 mph 18.4 mph N/A   Clear
1:35 AM 85.5 °F 93.4 °F 74.3 °F 69% 29.93 in 10.0 mi SE 12.7 mph 16.1 mph N/A   Clear
1:55 AM 85.5 °F 94.2 °F 75.2 °F 71% 29.93 in 10.0 mi SE 11.5 mph - N/A   Clear
2:15 AM 82.9 °F 88.8 °F 73.2 °F 72% 29.92 in 10.0 mi SE 12.7 mph - N/A   Clear
2:35 AM 82.4 °F 87.9 °F 72.9 °F 73% 29.92 in 10.0 mi SE 11.5 mph 17.3 mph N/A   Clear
2:55 AM 81.9 °F 87.3 °F 73.2 °F 75% 29.93 in 10.0 mi SE 11.5 mph - N/A   Clear
3:15 AM 81.7 °F 87.1 °F 73.4 °F 76% 29.93 in 10.0 mi SE 10.4 mph - N/A   Clear
3:35 AM 81.5 °F 86.9 °F 73.6 °F 77% 29.93 in 10.0 mi SE 10.4 mph - N/A   Clear
3:55 AM 81.0 °F 86.0 °F 73.4 °F 78% 29.93 in 10.0 mi SE 9.2 mph - N/A   Clear
4:15 AM 80.6 °F 85.2 °F 73.0 °F 78% 29.93 in 10.0 mi SE 6.9 mph - N/A   Clear
4:35 AM 80.6 °F 85.4 °F 73.4 °F 79% 29.93 in 10.0 mi ESE 8.1 mph - N/A   Clear
4:55 AM 80.6 °F 85.5 °F 73.9 °F 80% 29.93 in 10.0 mi ESE 5.8 mph - N/A   Scattered Clouds
5:15 AM 80.4 °F 85.3 °F 74.1 °F 81% 29.93 in 10.0 mi ESE 8.1 mph - N/A   Overcast
5:35 AM 79.9 °F - 73.9 °F 82% 29.94 in 10.0 mi ESE 5.8 mph - N/A   Overcast
5:55 AM 79.3 °F - 73.6 °F 82% 29.94 in 10.0 mi ESE 6.9 mph - N/A   Overcast
6:15 AM 79.2 °F - 73.4 °F 82% 29.94 in 10.0 mi ESE 9.2 mph - N/A   Overcast
6:35 AM 79.2 °F - 73.4 °F 82% 29.94 in 10.0 mi ESE 6.9 mph - N/A   Overcast
6:55 AM 79.2 °F - 73.6 °F 83% 29.95 in 10.0 mi ESE 8.1 mph - N/A   Overcast
7:15 AM 79.2 °F - 73.4 °F 82% 29.95 in 10.0 mi ESE 8.1 mph - N/A   Overcast
7:35 AM 79.2 °F - 73.6 °F 83% 29.96 in 10.0 mi ESE 8.1 mph - N/A   Overcast
7:55 AM 79.2 °F - 73.8 °F 83% 29.96 in 10.0 mi ESE 9.2 mph - N/A   Overcast
8:15 AM 79.2 °F - 73.6 °F 83% 29.97 in 10.0 mi ESE 8.1 mph - N/A   Overcast
8:35 AM 80.4 °F 85.5 °F 74.5 °F 82% 29.97 in 10.0 mi SE 8.1 mph - N/A   Overcast
8:55 AM 80.6 °F 85.5 °F 73.9 °F 80% 29.97 in 10.0 mi SE 9.2 mph - N/A   Overcast
9:15 AM 81.5 °F 87.2 °F 73.9 °F 78% 29.97 in 10.0 mi SE 6.9 mph - N/A   Mostly Cloudy
9:35 AM 82.6 °F 88.8 °F 73.8 °F 75% 29.97 in 10.0 mi SSE 10.4 mph - N/A   Mostly Cloudy
9:55 AM 83.8 °F 91.1 °F 74.3 °F 73% 29.97 in 10.0 mi SSE 9.2 mph - N/A   Mostly Cloudy
10:15 AM 85.5 °F 93.8 °F 74.7 °F 70% 29.97 in 10.0 mi SSE 9.2 mph - N/A   Mostly Cloudy
10:35 AM 85.6 °F 93.4 °F 74.1 °F 68% 29.97 in 10.0 mi South 10.4 mph - N/A   Scattered Clouds
10:55 AM 88.0 °F 98.0 °F 75.4 °F 66% 29.97 in 10.0 mi SE 11.5 mph 16.1 mph N/A   Scattered Clouds
11:15 AM 88.0 °F 97.0 °F 74.3 °F 64% 29.97 in 10.0 mi SSE 9.2 mph 17.3 mph N/A   Scattered Clouds
11:35 AM 88.9 °F 96.6 °F 72.9 °F 59% 29.96 in 10.0 mi SE 12.7 mph - N/A   Scattered Clouds
11:55 AM 90.5 °F 98.1 °F 72.5 °F 55% 29.96 in 10.0 mi South 9.2 mph 16.1 mph N/A   Clear
12:15 PM 93.2 °F 102.4 °F 73.4 °F 52% 29.95 in 10.0 mi SSE 8.1 mph - N/A   Clear
12:35 PM 93.2 °F 101.1 °F 71.8 °F 50% 29.94 in 10.0 mi SSE 8.1 mph - N/A   Scattered Clouds
12:55 PM 93.2 °F 99.4 °F 70.5 °F 47% 29.93 in 10.0 mi SE 6.9 mph - N/A   Scattered Clouds
1:15 PM 93.4 °F 98.6 °F 69.3 °F 45% 29.93 in 10.0 mi SE 11.5 mph - N/A   Scattered Clouds
1:35 PM 95.5 °F 100.6 °F 68.5 °F 41% 29.92 in 10.0 mi SSE 9.2 mph - N/A   Scattered Clouds
1:55 PM 96.6 °F 100.9 °F 67.1 °F 38% 29.91 in 10.0 mi SSE 11.5 mph 16.1 mph N/A   Scattered Clouds
2:15 PM 95.5 °F 98.9 °F 66.0 °F 38% 29.90 in 10.0 mi ESE 10.4 mph 16.1 mph N/A   Scattered Clouds
2:35 PM 96.3 °F 99.7 °F 66.2 °F 37% 29.88 in 10.0 mi South 15.0 mph 19.6 mph N/A   Scattered Clouds
2:55 PM 97.9 °F 101.5 °F 65.8 °F 35% 29.88 in 10.0 mi South 9.2 mph - N/A   Clear
3:15 PM 98.1 °F 99.1 °F 61.3 °F 30% 29.86 in 10.0 mi SSE 8.1 mph 17.3 mph N/A   Clear
3:35 PM 97.9 °F 99.3 °F 62.6 °F 31% 29.85 in 10.0 mi SSE 16.1 mph - N/A   Clear
3:55 PM 99.1 °F 100.8 °F 62.6 °F 30% 29.84 in 10.0 mi SSE 11.5 mph 17.3 mph N/A   Scattered Clouds
4:15 PM 100.0 °F 101.2 °F 61.5 °F 28% 29.82 in 10.0 mi SSE 11.5 mph 19.6 mph N/A   Scattered Clouds
4:35 PM 99.5 °F 100.4 °F 61.2 °F 28% 29.81 in 10.0 mi SSE 13.8 mph 21.9 mph N/A   Scattered Clouds
4:55 PM 99.5 °F 99.9 °F 60.1 °F 27% 29.80 in 10.0 mi SSE 11.5 mph 18.4 mph N/A   Scattered Clouds
5:15 PM 100.6 °F 101.6 °F 60.6 °F 27% 29.80 in 10.0 mi SE 11.5 mph 19.6 mph N/A   Scattered Clouds
5:35 PM 100.2 °F 101.0 °F 60.3 °F 27% 29.80 in 10.0 mi SSE 10.4 mph 19.6 mph N/A   Scattered Clouds
5:55 PM 99.0 °F 98.6 °F 58.1 °F 26% 29.80 in 10.0 mi SSE 10.4 mph - N/A   Clear
6:15 PM 99.1 °F 99.8 °F 60.4 °F 28% 29.79 in 10.0 mi SSE 13.8 mph 19.6 mph N/A   Clear
6:35 PM 99.1 °F 99.8 °F 61.2 °F 28% 29.79 in 10.0 mi SSE 15.0 mph 20.7 mph N/A   Clear
6:55 PM 97.9 °F 99.3 °F 62.6 °F 31% 29.80 in 10.0 mi SE 10.4 mph 21.9 mph N/A   Clear
7:15 PM 97.9 °F 98.8 °F 61.7 °F 30% 29.80 in 10.0 mi SSE 12.7 mph 16.1 mph N/A   Scattered Clouds
7:35 PM 97.9 °F 99.3 °F 62.1 °F 31% 29.80 in 10.0 mi SSE 10.4 mph 16.1 mph N/A   Clear
7:55 PM 97.2 °F 98.1 °F 61.9 °F 31% 29.81 in 10.0 mi SE 10.4 mph - N/A Thunderstorm Scattered Clouds
8:15 PM 95.5 °F 96.0 °F 61.2 °F 32% 29.81 in 10.0 mi SE 10.4 mph 17.3 mph N/A   Clear
8:35 PM 95.5 °F 96.5 °F 61.9 °F 33% 29.82 in 10.0 mi SE 10.4 mph 16.1 mph N/A   Clear
8:55 PM 95.5 °F 96.5 °F 62.2 °F 33% 29.82 in 10.0 mi SE 9.2 mph - N/A   Scattered Clouds
9:15 PM 95.5 °F 96.5 °F 62.6 °F 33% 29.84 in 10.0 mi East 8.1 mph - N/A   Scattered Clouds
9:35 PM 82.0 °F 85.1 °F 68.4 °F 63% 29.85 in 10.0 mi North 26.5 mph 32.2 mph N/A Thunderstorm Overcast
9:55 PM 80.6 °F 83.9 °F 69.8 °F 70% 29.87 in 10.0 mi NNE 19.6 mph 27.6 mph N/A   Overcast
10:15 PM 79.2 °F - 70.7 °F 75% 29.88 in 10.0 mi NE 13.8 mph 19.6 mph N/A   Mostly Cloudy
10:35 PM 78.4 °F - 70.7 °F 77% 29.89 in 10.0 mi NE 12.7 mph - N/A Thunderstorm Scattered Clouds
11:15 PM 75.9 °F - 72.0 °F 87% 29.92 in 10.0 mi NNW 10.4 mph - N/A Rain , Thunderstorm Light Thunderstorms and Rain
11:35 PM 75.7 °F - 71.6 °F 87% 29.93 in 10.0 mi North 13.8 mph - N/A Rain , Thunderstorm Light Thunderstorms and Rain
11:55 PM 75.4 °F - 72.1 °F 90% 29.92 in 10.0 mi NNE 11.5 mph - N/A Rain , Thunderstorm Light Thunderstorms and Rain